createdAt,value
2017-08-07T00:00:51.726Z,14.77
2017-08-07T00:01:57.793Z,14.74
2017-08-07T00:03:03.507Z,14.72
2017-08-07T00:04:09.535Z,14.76
2017-08-07T00:05:16.528Z,14.78
2017-08-07T00:06:25.926Z,14.81
2017-08-07T00:07:32.055Z,14.78
2017-08-07T00:08:38.081Z,14.81
2017-08-07T00:09:48.026Z,14.78
2017-08-07T00:10:55.841Z,14.77
2017-08-07T00:12:01.985Z,14.71
2017-08-07T00:13:08.056Z,14.68
2017-08-07T00:14:13.901Z,14.65
2017-08-07T00:15:19.936Z,14.70
2017-08-07T00:16:25.985Z,14.67
2017-08-07T00:17:31.953Z,14.67
2017-08-07T00:18:38.004Z,14.60
2017-08-07T00:19:44.063Z,14.56
2017-08-07T00:20:54.908Z,14.56
2017-08-07T00:22:00.981Z,14.55
2017-08-07T00:23:07.070Z,14.51
2017-08-07T00:24:13.161Z,14.48
2017-08-07T00:25:19.211Z,14.49
2017-08-07T00:26:25.269Z,14.50
2017-08-07T00:27:31.325Z,14.50
2017-08-07T00:28:37.394Z,14.49
2017-08-07T00:29:43.285Z,14.46
2017-08-07T00:30:49.320Z,14.45
2017-08-07T00:31:55.358Z,14.43
2017-08-07T00:33:01.506Z,14.37
2017-08-07T00:34:07.573Z,14.36
2017-08-07T00:35:13.618Z,14.36
2017-08-07T00:36:19.653Z,14.47
2017-08-07T00:37:25.688Z,14.52
2017-08-07T00:38:31.796Z,14.49
2017-08-07T00:39:37.903Z,14.60
2017-08-07T00:40:43.925Z,14.62
2017-08-07T00:41:49.961Z,14.67
2017-08-07T00:42:56.035Z,14.57
2017-08-07T00:44:02.129Z,14.45
2017-08-07T00:45:08.221Z,14.49
2017-08-07T00:46:14.246Z,14.45
2017-08-07T00:47:20.296Z,14.51
2017-08-07T00:48:26.325Z,14.44
2017-08-07T00:49:32.417Z,14.33
2017-08-07T00:50:38.490Z,14.44
2017-08-07T00:51:44.520Z,14.48
2017-08-07T00:52:52.752Z,14.39
2017-08-07T00:53:58.796Z,14.37
2017-08-07T00:55:04.880Z,14.35
2017-08-07T00:56:10.982Z,14.33
2017-08-07T00:57:17.069Z,14.41
2017-08-07T00:58:23.149Z,14.30
2017-08-07T00:59:29.181Z,14.21
2017-08-07T01:00:35.223Z,14.19
2017-08-07T01:01:41.103Z,14.18
2017-08-07T01:02:46.972Z,14.23
2017-08-07T01:03:53.036Z,14.28
2017-08-07T01:04:59.096Z,14.32
2017-08-07T01:06:05.165Z,14.27
2017-08-07T01:07:11.253Z,14.29
2017-08-07T01:08:17.329Z,14.21
2017-08-07T01:09:23.371Z,14.16
2017-08-07T01:10:30.386Z,14.20
2017-08-07T01:11:36.443Z,14.15
2017-08-07T01:12:42.527Z,14.25
2017-08-07T01:13:48.573Z,14.35
2017-08-07T01:14:54.618Z,14.30
2017-08-07T01:16:00.685Z,14.31
2017-08-07T01:17:06.736Z,14.35
2017-08-07T01:18:12.900Z,14.29
2017-08-07T01:19:18.947Z,14.30
2017-08-07T01:20:24.985Z,14.31
2017-08-07T01:21:31.541Z,14.27
2017-08-07T01:22:37.423Z,14.21
2017-08-07T01:23:43.512Z,14.15
2017-08-07T01:24:49.581Z,14.16
2017-08-07T01:25:55.652Z,14.09
2017-08-07T01:27:01.782Z,14.07
2017-08-07T01:28:07.812Z,14.11
2017-08-07T01:29:13.927Z,14.15
2017-08-07T01:30:19.971Z,14.16
2017-08-07T01:31:26.032Z,14.18
2017-08-07T01:32:31.884Z,14.23
2017-08-07T01:33:37.905Z,14.19
2017-08-07T01:34:43.969Z,14.06
2017-08-07T01:35:50.871Z,13.99
2017-08-07T01:36:56.905Z,13.95
2017-08-07T01:38:02.941Z,14.08
2017-08-07T01:39:08.988Z,14.08
2017-08-07T01:40:15.071Z,14.00
2017-08-07T01:41:21.104Z,14.11
2017-08-07T01:42:27.160Z,14.04
2017-08-07T01:43:33.284Z,13.94
2017-08-07T01:44:39.330Z,14.03
2017-08-07T01:45:45.027Z,14.10
2017-08-07T01:46:50.347Z,14.05
2017-08-07T01:47:56.382Z,14.01
2017-08-07T01:49:01.880Z,14.01
2017-08-07T01:50:07.580Z,14.03
2017-08-07T01:51:13.660Z,14.06
2017-08-07T01:52:19.129Z,14.01
2017-08-07T01:53:24.778Z,13.99
2017-08-07T01:54:30.803Z,13.87
2017-08-07T01:55:36.658Z,13.85
2017-08-07T01:56:42.733Z,13.84
2017-08-07T01:57:48.779Z,13.84
2017-08-07T01:58:54.829Z,13.89
2017-08-07T02:00:00.505Z,13.89
2017-08-07T02:01:05.621Z,13.80
2017-08-07T02:02:10.805Z,13.71
2017-08-07T02:03:16.877Z,13.73
2017-08-07T02:04:22.905Z,13.74
2017-08-07T02:05:28.262Z,13.63
2017-08-07T02:06:34.306Z,13.61
2017-08-07T02:07:40.459Z,13.58
2017-08-07T02:08:46.474Z,13.62
2017-08-07T02:09:52.521Z,13.64
2017-08-07T02:10:58.590Z,13.62
2017-08-07T02:12:04.641Z,13.64
2017-08-07T02:13:10.503Z,13.67
2017-08-07T02:14:16.570Z,13.69
2017-08-07T02:15:22.622Z,13.79
2017-08-07T02:16:28.650Z,13.77
2017-08-07T02:17:34.686Z,13.73
2017-08-07T02:18:40.628Z,13.74
2017-08-07T02:19:46.650Z,13.73
2017-08-07T02:20:52.712Z,13.78
2017-08-07T02:21:58.741Z,13.81
2017-08-07T02:23:04.799Z,13.75
2017-08-07T02:24:10.854Z,13.73
2017-08-07T02:25:16.865Z,13.80
2017-08-07T02:26:22.912Z,13.88
2017-08-07T02:27:28.940Z,13.95
2017-08-07T02:28:35.002Z,13.95
2017-08-07T02:29:41.133Z,13.90
2017-08-07T02:30:47.163Z,13.85
2017-08-07T02:31:54.182Z,13.81
2017-08-07T02:33:00.224Z,13.86
2017-08-07T02:34:06.129Z,13.83
2017-08-07T02:35:12.231Z,13.76
2017-08-07T02:36:18.264Z,13.77
2017-08-07T02:37:24.297Z,13.81
2017-08-07T02:38:30.331Z,13.81
2017-08-07T02:39:36.363Z,13.73
2017-08-07T02:40:42.429Z,13.78
2017-08-07T02:41:48.443Z,13.60
2017-08-07T02:42:54.286Z,13.69
2017-08-07T02:44:00.434Z,13.75
2017-08-07T02:45:06.674Z,13.79
2017-08-07T02:46:12.770Z,13.70
2017-08-07T02:47:18.815Z,13.64
2017-08-07T02:48:24.857Z,13.57
2017-08-07T02:49:30.897Z,13.55
2017-08-07T02:50:36.977Z,13.58
2017-08-07T02:51:43.070Z,13.65
2017-08-07T02:52:49.112Z,13.60
2017-08-07T02:53:55.145Z,13.60
2017-08-07T02:55:01.225Z,13.62
2017-08-07T02:56:07.257Z,13.59
2017-08-07T02:57:13.349Z,13.54
2017-08-07T02:58:19.213Z,13.57
2017-08-07T02:59:25.232Z,13.62
2017-08-07T03:00:31.305Z,13.68
2017-08-07T03:01:37.364Z,13.73
2017-08-07T03:02:43.434Z,13.61
2017-08-07T03:03:49.266Z,13.61
2017-08-07T03:04:55.293Z,13.55
2017-08-07T03:06:01.354Z,13.58
2017-08-07T03:07:07.378Z,13.57
2017-08-07T03:08:13.451Z,13.58
2017-08-07T03:09:24.588Z,13.50
2017-08-07T03:10:30.454Z,13.47
2017-08-07T03:11:40.528Z,13.56
2017-08-07T03:12:46.569Z,13.61
2017-08-07T03:13:52.645Z,13.58
2017-08-07T03:15:00.320Z,13.58
2017-08-07T03:16:06.424Z,13.57
2017-08-07T03:17:12.471Z,13.47
2017-08-07T03:18:18.540Z,13.44
2017-08-07T03:19:24.629Z,13.38
2017-08-07T03:20:31.573Z,13.45
2017-08-07T03:21:37.602Z,13.40
2017-08-07T03:22:43.646Z,13.46
2017-08-07T03:23:49.707Z,13.47
2017-08-07T03:24:55.788Z,13.45
2017-08-07T03:26:01.990Z,13.49
2017-08-07T03:27:08.225Z,13.40
2017-08-07T03:28:14.301Z,13.29
2017-08-07T03:29:20.342Z,13.30
2017-08-07T03:30:26.416Z,13.37
2017-08-07T03:31:32.444Z,13.40
2017-08-07T03:32:38.489Z,13.41
2017-08-07T03:33:44.560Z,13.36
2017-08-07T03:34:50.406Z,13.40
2017-08-07T03:35:56.469Z,13.42
2017-08-07T03:37:02.583Z,13.46
2017-08-07T03:38:08.640Z,13.46
2017-08-07T03:39:14.725Z,13.35
2017-08-07T03:40:20.050Z,13.38
2017-08-07T03:41:26.157Z,13.41
2017-08-07T03:42:32.199Z,13.39
2017-08-07T03:43:38.268Z,13.45
2017-08-07T03:44:44.305Z,13.39
2017-08-07T03:45:50.343Z,13.39
2017-08-07T03:46:56.449Z,13.29
2017-08-07T03:48:02.469Z,13.26
2017-08-07T03:49:08.505Z,13.19
2017-08-07T03:50:14.540Z,13.12
2017-08-07T03:51:20.586Z,13.21
2017-08-07T03:52:26.677Z,13.22
2017-08-07T03:53:32.702Z,13.24
2017-08-07T03:54:38.738Z,13.16
2017-08-07T03:55:44.776Z,13.20
2017-08-07T03:56:50.813Z,13.07
2017-08-07T03:57:56.912Z,13.18
2017-08-07T03:59:02.971Z,13.24
2017-08-07T04:00:09.029Z,13.28
2017-08-07T04:01:15.105Z,13.30
2017-08-07T04:02:21.151Z,13.30
2017-08-07T04:03:27.215Z,13.19
2017-08-07T04:04:33.245Z,13.26
2017-08-07T04:05:39.292Z,13.25
2017-08-07T04:06:45.361Z,13.19
2017-08-07T04:07:51.398Z,13.21
2017-08-07T04:08:57.461Z,13.26
2017-08-07T04:10:03.581Z,13.22
2017-08-07T04:11:09.687Z,13.20
2017-08-07T04:12:15.765Z,13.25
2017-08-07T04:13:21.801Z,13.27
2017-08-07T04:14:27.902Z,13.26
2017-08-07T04:15:33.963Z,13.29
2017-08-07T04:16:40.025Z,13.31
2017-08-07T04:17:46.117Z,13.33
2017-08-07T04:18:52.250Z,13.30
2017-08-07T04:19:58.689Z,13.41
2017-08-07T04:21:04.929Z,13.44
2017-08-07T04:22:10.961Z,13.33
2017-08-07T04:23:17.068Z,13.44
2017-08-07T04:24:22.944Z,13.42
2017-08-07T04:25:29.014Z,13.48
2017-08-07T04:26:35.062Z,13.37
2017-08-07T04:27:41.090Z,13.30
2017-08-07T04:28:47.173Z,13.41
2017-08-07T04:29:53.326Z,13.46
2017-08-07T04:30:59.410Z,13.43
2017-08-07T04:32:05.448Z,13.40
2017-08-07T04:33:11.498Z,13.46
2017-08-07T04:34:17.603Z,13.53
2017-08-07T04:35:23.671Z,13.49
2017-08-07T04:36:29.743Z,13.51
2017-08-07T04:37:35.749Z,13.58
2017-08-07T04:38:41.780Z,13.65
2017-08-07T04:39:47.794Z,13.64
2017-08-07T04:40:53.806Z,13.61
2017-08-07T04:41:59.882Z,13.63
2017-08-07T04:43:05.916Z,13.60
2017-08-07T04:44:11.934Z,13.68
2017-08-07T04:45:17.938Z,13.74
2017-08-07T04:46:23.973Z,13.75
2017-08-07T04:47:30.052Z,13.75
2017-08-07T04:48:36.071Z,13.81
2017-08-07T04:49:42.119Z,13.86
2017-08-07T04:50:48.146Z,13.84
2017-08-07T04:51:54.225Z,13.95
2017-08-07T04:53:00.292Z,14.02
2017-08-07T04:54:06.317Z,14.02
2017-08-07T04:55:12.371Z,13.99
2017-08-07T04:56:18.415Z,14.01
2017-08-07T04:57:24.505Z,14.02
2017-08-07T04:58:30.579Z,14.12
2017-08-07T04:59:36.590Z,14.12
2017-08-07T05:00:42.624Z,14.15
2017-08-07T05:01:48.644Z,14.28
2017-08-07T05:02:54.675Z,14.27
2017-08-07T05:04:00.717Z,14.31
2017-08-07T05:05:06.795Z,14.36
2017-08-07T05:06:12.843Z,14.34
2017-08-07T05:07:18.881Z,14.37
2017-08-07T05:08:24.896Z,14.42
2017-08-07T05:09:30.960Z,14.53
2017-08-07T05:10:36.987Z,14.64
2017-08-07T05:11:43.061Z,14.64
2017-08-07T05:12:49.085Z,14.71
2017-08-07T05:13:56.583Z,14.72
2017-08-07T05:15:05.976Z,14.73
2017-08-07T05:16:13.450Z,14.75
2017-08-07T05:17:21.149Z,14.85
2017-08-07T05:18:30.667Z,15.04
2017-08-07T05:19:38.709Z,15.07
2017-08-07T05:20:45.540Z,15.08
2017-08-07T05:21:51.555Z,15.11
2017-08-07T05:22:57.563Z,15.14
2017-08-07T05:24:03.568Z,15.18
2017-08-07T05:25:09.590Z,15.23
2017-08-07T05:26:15.636Z,15.19
2017-08-07T05:27:21.639Z,15.15
2017-08-07T05:28:27.644Z,15.22
2017-08-07T05:29:33.671Z,15.35
2017-08-07T05:30:39.702Z,15.35
2017-08-07T05:31:45.765Z,15.47
2017-08-07T05:32:51.771Z,15.49
2017-08-07T05:33:57.770Z,15.53
2017-08-07T05:35:03.793Z,15.43
2017-08-07T05:36:09.816Z,15.45
2017-08-07T05:37:15.857Z,15.42
2017-08-07T05:38:21.895Z,15.30
2017-08-07T05:39:27.926Z,15.43
2017-08-07T05:40:33.944Z,15.33
2017-08-07T05:41:39.980Z,15.38
2017-08-07T05:42:46.030Z,15.45
2017-08-07T05:43:52.060Z,15.52
2017-08-07T05:44:58.081Z,15.54
2017-08-07T05:46:04.081Z,15.49
2017-08-07T05:47:10.176Z,15.56
2017-08-07T05:48:16.235Z,15.55
2017-08-07T05:49:22.241Z,15.52
2017-08-07T05:50:28.277Z,15.56
2017-08-07T05:51:34.303Z,15.67
2017-08-07T05:52:40.132Z,15.72
2017-08-07T05:53:46.180Z,15.81
2017-08-07T05:54:52.193Z,15.93
2017-08-07T05:55:58.224Z,15.83
2017-08-07T05:57:04.249Z,15.73
2017-08-07T05:58:10.283Z,15.75
2017-08-07T05:59:16.337Z,15.89
2017-08-07T06:00:22.345Z,15.93
2017-08-07T06:01:28.186Z,16.03
2017-08-07T06:02:34.196Z,16.05
2017-08-07T06:03:40.199Z,16.13
2017-08-07T06:04:46.256Z,16.15
2017-08-07T06:05:52.282Z,16.24
2017-08-07T06:06:58.300Z,16.33
2017-08-07T06:08:04.301Z,16.04
2017-08-07T06:09:10.306Z,16.05
2017-08-07T06:10:16.358Z,16.14
2017-08-07T06:11:22.383Z,15.98
2017-08-07T06:12:28.472Z,16.01
2017-08-07T06:13:35.481Z,16.05
2017-08-07T06:14:43.228Z,16.16
2017-08-07T06:15:51.092Z,16.33
2017-08-07T06:16:59.639Z,16.39
2017-08-07T06:18:07.296Z,16.45
2017-08-07T06:19:14.673Z,16.63
2017-08-07T06:20:23.011Z,16.70
2017-08-07T06:21:30.904Z,16.48
2017-08-07T06:22:38.476Z,16.54
2017-08-07T06:23:46.048Z,16.53
2017-08-07T06:24:55.421Z,16.58
2017-08-07T06:26:03.857Z,16.52
2017-08-07T06:27:13.222Z,16.57
2017-08-07T06:28:19.712Z,16.58
2017-08-07T06:29:25.768Z,16.76
2017-08-07T06:30:31.816Z,16.80
2017-08-07T06:31:37.857Z,16.87
2017-08-07T06:32:43.915Z,16.98
2017-08-07T06:33:49.940Z,17.09
2017-08-07T06:34:55.959Z,17.21
2017-08-07T06:36:02.251Z,17.17
2017-08-07T06:37:08.266Z,17.20
2017-08-07T06:38:14.154Z,16.91
2017-08-07T06:39:20.190Z,16.76
2017-08-07T06:40:26.228Z,16.88
2017-08-07T06:41:32.242Z,16.97
2017-08-07T06:42:38.258Z,16.94
2017-08-07T06:43:44.331Z,17.13
2017-08-07T06:44:50.352Z,17.29
2017-08-07T06:45:56.360Z,17.17
2017-08-07T06:47:02.510Z,17.29
2017-08-07T06:48:08.525Z,17.31
2017-08-07T06:49:14.595Z,17.44
2017-08-07T06:50:20.628Z,17.54
2017-08-07T06:51:26.653Z,17.45
2017-08-07T06:52:32.674Z,17.30
2017-08-07T06:53:38.701Z,17.34
2017-08-07T06:54:44.760Z,17.35
2017-08-07T06:55:50.782Z,17.41
2017-08-07T06:56:56.845Z,17.63
2017-08-07T06:58:02.891Z,17.82
2017-08-07T06:59:09.276Z,17.96
2017-08-07T07:00:15.665Z,18.09
2017-08-07T07:01:21.480Z,18.21
2017-08-07T07:02:27.505Z,18.09
2017-08-07T07:03:33.539Z,18.08
2017-08-07T07:04:39.538Z,18.19
2017-08-07T07:05:45.587Z,18.01
2017-08-07T07:06:51.597Z,18.10
2017-08-07T07:07:57.653Z,18.08
2017-08-07T07:09:03.615Z,18.26
2017-08-07T07:10:09.680Z,18.48
2017-08-07T07:11:15.718Z,18.45
2017-08-07T07:12:21.750Z,18.38
2017-08-07T07:13:27.801Z,18.27
2017-08-07T07:14:34.220Z,18.32
2017-08-07T07:15:40.353Z,18.56
2017-08-07T07:16:46.418Z,18.68
2017-08-07T07:17:52.439Z,18.49
2017-08-07T07:18:58.457Z,18.65
2017-08-07T07:20:04.487Z,18.78
2017-08-07T07:21:10.510Z,18.63
2017-08-07T07:22:16.557Z,18.76
2017-08-07T07:23:22.592Z,18.87
2017-08-07T07:24:28.636Z,18.72
2017-08-07T07:25:34.662Z,18.91
2017-08-07T07:26:40.685Z,19.26
2017-08-07T07:27:46.749Z,19.42
2017-08-07T07:28:52.841Z,19.46
2017-08-07T07:29:58.876Z,19.62
2017-08-07T07:31:04.908Z,19.61
2017-08-07T07:32:11.629Z,19.65
2017-08-07T07:33:17.737Z,19.79
2017-08-07T07:34:23.790Z,19.96
2017-08-07T07:35:29.631Z,20.08
2017-08-07T07:36:35.645Z,19.94
2017-08-07T07:37:41.672Z,20.16
2017-08-07T07:38:47.729Z,20.07
2017-08-07T07:39:53.838Z,19.83
2017-08-07T07:40:59.853Z,20.12
2017-08-07T07:42:05.899Z,19.83
2017-08-07T07:43:11.908Z,20.07
2017-08-07T07:44:17.984Z,19.78
2017-08-07T07:45:24.016Z,19.81
2017-08-07T07:46:29.859Z,20.12
2017-08-07T07:47:35.901Z,20.04
2017-08-07T07:48:41.916Z,19.74
2017-08-07T07:49:48.066Z,19.58
2017-08-07T07:50:54.124Z,19.57
2017-08-07T07:51:59.961Z,19.62
2017-08-07T07:53:05.843Z,19.79
2017-08-07T07:54:11.897Z,19.79
2017-08-07T07:55:17.964Z,20.09
2017-08-07T07:56:24.020Z,20.33
2017-08-07T07:57:30.070Z,20.62
2017-08-07T07:58:36.093Z,20.78
2017-08-07T07:59:42.116Z,20.89
2017-08-07T08:00:48.189Z,21.04
2017-08-07T08:01:54.226Z,21.15
2017-08-07T08:03:00.380Z,21.32
2017-08-07T08:04:06.493Z,21.03
2017-08-07T08:05:12.321Z,20.73
2017-08-07T08:06:18.395Z,21.00
2017-08-07T08:07:24.412Z,21.12
2017-08-07T08:08:30.243Z,21.14
2017-08-07T08:09:36.255Z,21.33
2017-08-07T08:10:42.291Z,21.52
2017-08-07T08:11:48.366Z,21.67
2017-08-07T08:12:54.427Z,21.68
2017-08-07T08:14:00.548Z,21.72
2017-08-07T08:15:06.592Z,21.81
2017-08-07T08:16:12.644Z,21.90
2017-08-07T08:17:18.747Z,21.48
2017-08-07T08:18:24.790Z,21.47
2017-08-07T08:19:30.845Z,21.73
2017-08-07T08:20:36.888Z,21.76
2017-08-07T08:21:42.925Z,21.54
2017-08-07T08:22:49.002Z,21.67
2017-08-07T08:23:55.049Z,21.18
2017-08-07T08:25:01.089Z,21.32
2017-08-07T08:26:07.150Z,21.57
2017-08-07T08:27:13.202Z,21.23
2017-08-07T08:28:19.273Z,21.42
2017-08-07T08:29:25.309Z,21.28
2017-08-07T08:30:31.338Z,21.57
2017-08-07T08:31:37.412Z,21.38
2017-08-07T08:32:43.446Z,21.64
2017-08-07T08:33:49.531Z,21.73
2017-08-07T08:34:55.562Z,21.96
2017-08-07T08:36:01.634Z,21.90
2017-08-07T08:37:07.669Z,21.65
2017-08-07T08:38:13.773Z,21.44
2017-08-07T08:39:19.870Z,21.16
2017-08-07T08:40:25.897Z,21.17
2017-08-07T08:41:31.933Z,21.28
2017-08-07T08:42:37.963Z,21.50
2017-08-07T08:43:43.980Z,21.37
2017-08-07T08:44:50.054Z,21.20
2017-08-07T08:45:56.115Z,21.57
2017-08-07T08:47:02.210Z,21.77
2017-08-07T08:48:08.286Z,21.97
2017-08-07T08:49:14.168Z,21.93
2017-08-07T08:50:20.250Z,22.15
2017-08-07T08:51:26.272Z,22.32
2017-08-07T08:52:32.315Z,22.53
2017-08-07T08:53:38.363Z,22.45
2017-08-07T08:54:44.423Z,22.62
2017-08-07T08:55:50.504Z,22.39
2017-08-07T08:56:56.559Z,22.66
2017-08-07T08:58:02.674Z,22.88
2017-08-07T08:59:08.752Z,22.53
2017-08-07T09:00:14.797Z,22.76
2017-08-07T09:01:20.689Z,22.75
2017-08-07T09:02:26.745Z,22.84
2017-08-07T09:03:32.444Z,22.93
2017-08-07T09:04:38.489Z,23.08
2017-08-07T09:05:44.160Z,23.02
2017-08-07T09:06:50.258Z,23.07
2017-08-07T09:07:56.292Z,23.06
2017-08-07T09:09:02.380Z,23.05
2017-08-07T09:10:08.412Z,23.10
2017-08-07T09:11:14.459Z,23.15
2017-08-07T09:12:20.530Z,23.27
2017-08-07T09:13:26.637Z,23.27
2017-08-07T09:14:32.699Z,22.92
2017-08-07T09:15:38.733Z,23.00
2017-08-07T09:16:44.781Z,22.88
2017-08-07T09:17:50.868Z,23.00
2017-08-07T09:18:56.931Z,23.17
2017-08-07T09:20:03.017Z,23.00
2017-08-07T09:21:09.051Z,23.11
2017-08-07T09:22:15.086Z,23.23
2017-08-07T09:23:21.170Z,23.07
2017-08-07T09:24:27.215Z,23.30
2017-08-07T09:25:33.261Z,23.49
2017-08-07T09:26:39.341Z,23.36
2017-08-07T09:27:45.404Z,23.02
2017-08-07T09:28:51.492Z,23.11
2017-08-07T09:29:57.534Z,23.35
2017-08-07T09:31:03.837Z,23.37
2017-08-07T09:32:09.878Z,23.45
2017-08-07T09:33:15.893Z,23.73
2017-08-07T09:34:21.962Z,23.81
2017-08-07T09:35:28.018Z,23.37
2017-08-07T09:36:34.072Z,23.19
2017-08-07T09:37:40.174Z,23.49
2017-08-07T09:38:46.238Z,23.65
2017-08-07T09:39:52.321Z,23.71
2017-08-07T09:40:58.758Z,23.61
2017-08-07T09:42:05.201Z,23.40
2017-08-07T09:43:11.270Z,23.34
2017-08-07T09:44:17.322Z,23.58
2017-08-07T09:45:23.422Z,23.48
2017-08-07T09:46:29.490Z,23.65
2017-08-07T09:47:35.537Z,23.58
2017-08-07T09:48:41.590Z,23.74
2017-08-07T09:49:47.627Z,23.75
2017-08-07T09:50:53.696Z,23.80
2017-08-07T09:51:59.745Z,23.88
2017-08-07T09:53:05.780Z,23.87
2017-08-07T09:54:11.806Z,24.07
2017-08-07T09:55:17.839Z,24.24
2017-08-07T09:56:23.921Z,24.32
2017-08-07T09:57:29.958Z,24.07
2017-08-07T09:58:35.997Z,24.04
2017-08-07T09:59:42.024Z,24.12
2017-08-07T10:00:48.069Z,23.91
2017-08-07T10:01:54.166Z,24.02
2017-08-07T10:03:00.301Z,24.09
2017-08-07T10:04:06.394Z,24.05
2017-08-07T10:05:12.449Z,23.86
2017-08-07T10:06:18.514Z,23.88
2017-08-07T10:07:24.600Z,23.61
2017-08-07T10:08:30.661Z,23.62
2017-08-07T10:09:36.717Z,23.88
2017-08-07T10:10:42.755Z,24.19
2017-08-07T10:11:48.798Z,24.31
2017-08-07T10:12:54.883Z,24.49
2017-08-07T10:14:01.024Z,24.70
2017-08-07T10:15:07.406Z,24.91
2017-08-07T10:16:13.906Z,25.04
2017-08-07T10:17:19.950Z,25.19
2017-08-07T10:18:26.030Z,25.27
2017-08-07T10:19:32.061Z,25.17
2017-08-07T10:20:38.101Z,25.08
2017-08-07T10:21:44.165Z,25.17
2017-08-07T10:22:55.065Z,25.00
2017-08-07T10:24:01.251Z,24.97
2017-08-07T10:25:06.971Z,24.73
2017-08-07T10:26:13.054Z,24.86
2017-08-07T10:27:19.134Z,24.59
2017-08-07T10:28:25.154Z,24.81
2017-08-07T10:29:31.241Z,24.73
2017-08-07T10:30:37.303Z,24.59
2017-08-07T10:31:43.385Z,24.47
2017-08-07T10:32:49.440Z,24.76
2017-08-07T10:33:55.759Z,24.63
2017-08-07T10:35:01.860Z,24.60
2017-08-07T10:36:07.924Z,24.86
2017-08-07T10:37:13.980Z,24.71
2017-08-07T10:38:20.044Z,24.44
2017-08-07T10:39:26.104Z,24.41
2017-08-07T10:40:32.176Z,24.20
2017-08-07T10:41:38.251Z,24.14
2017-08-07T10:42:44.309Z,24.32
2017-08-07T10:43:50.344Z,24.53
2017-08-07T10:44:56.400Z,24.62
2017-08-07T10:46:02.602Z,24.63
2017-08-07T10:47:08.669Z,24.66
2017-08-07T10:48:14.724Z,24.68
2017-08-07T10:49:20.746Z,24.80
2017-08-07T10:50:26.831Z,25.01
2017-08-07T10:51:32.913Z,25.06
2017-08-07T10:52:38.968Z,24.89
2017-08-07T10:53:45.037Z,24.80
2017-08-07T10:54:51.093Z,24.65
2017-08-07T10:55:57.169Z,24.48
2017-08-07T10:57:03.266Z,24.34
2017-08-07T10:58:09.323Z,24.26
2017-08-07T10:59:15.354Z,23.98
2017-08-07T11:00:21.388Z,24.11
2017-08-07T11:01:27.288Z,24.02
2017-08-07T11:02:33.409Z,24.26
2017-08-07T11:03:39.446Z,24.41
2017-08-07T11:04:45.525Z,24.47
2017-08-07T11:05:51.569Z,24.27
2017-08-07T11:06:57.619Z,24.09
2017-08-07T11:08:03.695Z,24.30
2017-08-07T11:09:09.757Z,24.66
2017-08-07T11:10:15.835Z,24.90
2017-08-07T11:11:21.879Z,24.88
2017-08-07T11:12:27.965Z,25.03
2017-08-07T11:13:34.059Z,25.15
2017-08-07T11:14:40.123Z,24.73
2017-08-07T11:15:46.183Z,24.95
2017-08-07T11:16:52.245Z,25.03
2017-08-07T11:17:58.303Z,25.01
2017-08-07T11:19:04.395Z,24.90
2017-08-07T11:20:10.441Z,25.05
2017-08-07T11:21:16.303Z,24.89
2017-08-07T11:22:22.335Z,24.92
2017-08-07T11:23:28.397Z,25.04
2017-08-07T11:24:34.504Z,25.18
2017-08-07T11:25:40.560Z,25.15
2017-08-07T11:26:46.618Z,24.41
2017-08-07T11:27:52.689Z,24.56
2017-08-07T11:28:58.731Z,24.78
2017-08-07T11:30:04.881Z,24.73
2017-08-07T11:31:10.983Z,24.82
2017-08-07T11:32:17.014Z,24.38
2017-08-07T11:33:23.044Z,24.28
2017-08-07T11:34:29.103Z,24.29
2017-08-07T11:35:35.184Z,24.38
2017-08-07T11:36:41.225Z,24.63
2017-08-07T11:37:47.286Z,24.86
2017-08-07T11:38:53.316Z,24.80
2017-08-07T11:39:59.356Z,24.75
2017-08-07T11:41:05.464Z,24.89
2017-08-07T11:42:11.489Z,25.10
2017-08-07T11:43:17.524Z,25.12
2017-08-07T11:44:23.596Z,24.90
2017-08-07T11:45:29.653Z,24.86
2017-08-07T11:46:35.729Z,24.99
2017-08-07T11:47:41.821Z,25.02
2017-08-07T11:48:47.878Z,25.00
2017-08-07T11:49:53.928Z,24.76
2017-08-07T11:51:00.067Z,24.52
2017-08-07T11:52:06.219Z,24.71
2017-08-07T11:53:12.278Z,24.82
2017-08-07T11:54:18.321Z,24.94
2017-08-07T11:55:24.356Z,24.64
2017-08-07T11:56:30.425Z,24.79
2017-08-07T11:57:36.527Z,24.81
2017-08-07T11:58:42.577Z,24.57
2017-08-07T11:59:48.647Z,24.75
2017-08-07T12:00:54.782Z,24.80
2017-08-07T12:02:00.851Z,24.62
2017-08-07T12:03:07.025Z,24.81
2017-08-07T12:04:13.070Z,24.80
2017-08-07T12:05:19.147Z,24.89
2017-08-07T12:06:25.225Z,25.14
2017-08-07T12:07:31.274Z,25.21
2017-08-07T12:08:37.372Z,24.81
2017-08-07T12:09:43.449Z,24.47
2017-08-07T12:10:49.540Z,24.70
2017-08-07T12:11:55.645Z,24.66
2017-08-07T12:13:01.718Z,24.49
2017-08-07T12:14:07.884Z,24.77
2017-08-07T12:15:14.002Z,24.96
2017-08-07T12:16:20.099Z,24.87
2017-08-07T12:17:26.166Z,25.03
2017-08-07T12:18:32.219Z,25.21
2017-08-07T12:19:38.305Z,25.35
2017-08-07T12:20:44.377Z,25.13
2017-08-07T12:21:50.453Z,25.26
2017-08-07T12:22:56.521Z,25.49
2017-08-07T12:24:02.676Z,25.70
2017-08-07T12:25:08.749Z,25.44
2017-08-07T12:26:14.805Z,25.42
2017-08-07T12:27:20.861Z,25.45
2017-08-07T12:28:26.937Z,25.62
2017-08-07T12:29:32.979Z,25.73
2017-08-07T12:30:39.077Z,25.88
2017-08-07T12:31:45.113Z,25.96
2017-08-07T12:32:51.156Z,26.09
2017-08-07T12:33:57.213Z,25.88
2017-08-07T12:35:03.341Z,25.63
2017-08-07T12:36:09.421Z,25.56
2017-08-07T12:37:15.460Z,25.08
2017-08-07T12:38:21.501Z,25.27
2017-08-07T12:39:27.594Z,25.15
2017-08-07T12:40:33.636Z,25.08
2017-08-07T12:41:39.733Z,25.35
2017-08-07T12:42:45.781Z,25.57
2017-08-07T12:43:51.842Z,25.73
2017-08-07T12:44:57.877Z,25.82
2017-08-07T12:46:04.001Z,25.91
2017-08-07T12:47:10.089Z,25.94
2017-08-07T12:48:16.148Z,25.90
2017-08-07T12:49:22.183Z,25.62
2017-08-07T12:50:28.209Z,25.67
2017-08-07T12:51:34.255Z,25.70
2017-08-07T12:52:40.330Z,25.81
2017-08-07T12:53:46.397Z,25.91
2017-08-07T12:54:52.451Z,26.09
2017-08-07T12:55:58.501Z,26.19
2017-08-07T12:57:04.572Z,25.75
2017-08-07T12:58:10.673Z,25.55
2017-08-07T12:59:16.749Z,25.49
2017-08-07T13:00:26.045Z,25.23
2017-08-07T13:01:31.902Z,25.40
2017-08-07T13:02:37.986Z,25.58
2017-08-07T13:03:44.069Z,25.27
2017-08-07T13:04:50.132Z,25.35
2017-08-07T13:05:56.171Z,25.57
2017-08-07T13:07:02.227Z,25.44
2017-08-07T13:08:08.291Z,25.39
2017-08-07T13:09:14.390Z,25.36
2017-08-07T13:10:20.434Z,25.50
2017-08-07T13:11:26.501Z,25.66
2017-08-07T13:12:32.557Z,25.87
2017-08-07T13:13:38.577Z,25.77
2017-08-07T13:14:44.675Z,25.97
2017-08-07T13:15:50.737Z,26.12
2017-08-07T13:16:56.808Z,26.12
2017-08-07T13:18:02.945Z,26.03
2017-08-07T13:19:09.008Z,26.20
2017-08-07T13:20:15.088Z,25.90
2017-08-07T13:21:21.187Z,25.78
2017-08-07T13:22:27.216Z,25.91
2017-08-07T13:23:33.309Z,25.69
2017-08-07T13:24:39.364Z,25.16
2017-08-07T13:25:46.140Z,25.13
2017-08-07T13:26:52.211Z,25.07
2017-08-07T13:27:58.258Z,25.16
2017-08-07T13:29:04.325Z,25.26
2017-08-07T13:30:10.383Z,25.34
2017-08-07T13:31:16.478Z,25.21
2017-08-07T13:32:22.525Z,24.94
2017-08-07T13:33:28.564Z,24.87
2017-08-07T13:34:34.605Z,25.03
2017-08-07T13:35:40.641Z,25.09
2017-08-07T13:36:46.717Z,25.28
2017-08-07T13:37:52.755Z,25.32
2017-08-07T13:38:58.809Z,25.49
2017-08-07T13:40:04.223Z,25.42
2017-08-07T13:41:10.247Z,25.63
2017-08-07T13:42:16.316Z,25.81
2017-08-07T13:43:22.368Z,25.86
2017-08-07T13:44:28.430Z,25.99
2017-08-07T13:45:34.280Z,26.09
2017-08-07T13:46:40.330Z,25.97
2017-08-07T13:47:46.417Z,26.06
2017-08-07T13:48:52.491Z,25.62
2017-08-07T13:49:58.581Z,25.34
2017-08-07T13:51:04.636Z,25.55
2017-08-07T13:52:10.687Z,25.59
2017-08-07T13:53:16.773Z,25.78
2017-08-07T13:54:22.838Z,25.61
2017-08-07T13:55:28.874Z,25.42
2017-08-07T13:56:35.317Z,25.53
2017-08-07T13:57:41.712Z,25.33
2017-08-07T13:58:47.794Z,25.35
2017-08-07T13:59:53.813Z,25.59
2017-08-07T14:00:59.875Z,25.65
2017-08-07T14:02:05.941Z,25.51
2017-08-07T14:03:11.990Z,25.63
2017-08-07T14:04:18.067Z,25.46
2017-08-07T14:05:24.133Z,25.71
2017-08-07T14:06:30.169Z,25.83
2017-08-07T14:07:36.563Z,25.75
2017-08-07T14:08:42.666Z,25.89
2017-08-07T14:09:48.757Z,25.85
2017-08-07T14:10:54.788Z,26.02
2017-08-07T14:12:01.697Z,26.15